createdAt,value
2022-12-09T04:43:54.085Z,0.00
2022-12-09T04:44:55.072Z,0.00
2022-12-09T04:50:51.915Z,0.00
2022-12-09T04:51:51.641Z,0.00
2022-12-09T04:52:51.596Z,0.00
2022-12-09T04:53:51.970Z,0.00
2022-12-09T04:54:52.230Z,0.00
2022-12-09T04:55:51.840Z,0.00
2022-12-09T04:56:52.838Z,0.00
2022-12-09T04:57:52.127Z,0.00
2022-12-09T04:58:51.878Z,0.00
2022-12-09T04:59:51.860Z,0.00
2022-12-09T05:00:52.162Z,0.00
2022-12-09T05:01:52.841Z,0.00
2022-12-09T05:02:52.778Z,0.00
2022-12-09T05:03:53.173Z,0.00
2022-12-09T05:04:53.103Z,0.00
2022-12-09T05:05:52.561Z,0.00
2022-12-09T05:06:52.669Z,0.00
2022-12-09T05:07:53.295Z,0.00
2022-12-09T05:08:52.827Z,0.00
2022-12-09T05:09:52.317Z,0.00
2022-12-09T05:10:52.601Z,0.00
2022-12-09T05:11:52.530Z,0.00
2022-12-09T05:12:52.416Z,0.00
2022-12-09T05:13:52.538Z,0.00
2022-12-09T05:14:52.855Z,0.00
2022-12-09T05:15:53.317Z,0.00
2022-12-09T05:16:53.379Z,0.00
2022-12-09T05:17:53.322Z,0.00
2022-12-09T05:18:53.379Z,0.00
2022-12-09T05:19:52.681Z,0.00
2022-12-09T05:20:52.936Z,0.00
2022-12-09T05:21:52.976Z,0.00
2022-12-09T05:22:53.202Z,0.00
2022-12-09T05:23:52.968Z,0.00
2022-12-09T05:24:53.131Z,0.00
2022-12-09T05:25:53.938Z,0.00
2022-12-09T05:26:53.092Z,0.00
2022-12-09T05:27:53.074Z,0.00
2022-12-09T05:28:53.124Z,0.00
2022-12-09T05:29:53.194Z,0.00
2022-12-09T05:30:53.979Z,0.00
2022-12-09T05:31:53.968Z,0.00
2022-12-09T05:32:53.234Z,0.00
2022-12-09T05:33:53.367Z,0.00
2022-12-09T05:34:53.373Z,0.00
2022-12-09T05:35:54.240Z,0.00
2022-12-09T05:36:54.329Z,0.00
2022-12-09T05:37:53.760Z,0.00
2022-12-09T05:38:54.606Z,0.00
2022-12-09T05:39:53.625Z,0.00
2022-12-09T05:40:54.226Z,0.00
2022-12-09T05:41:53.900Z,0.00
2022-12-09T05:42:54.524Z,0.00
2022-12-09T05:43:54.057Z,0.00
2022-12-09T05:44:54.243Z,0.00
2022-12-09T05:45:54.095Z,0.00
2022-12-09T05:46:53.799Z,0.00
2022-12-09T05:47:54.269Z,0.00
2022-12-09T05:48:54.886Z,0.00
2022-12-09T05:49:54.897Z,0.00
2022-12-09T05:50:53.893Z,0.00
2022-12-09T05:51:54.896Z,0.00
2022-12-09T05:52:54.018Z,0.00
2022-12-09T05:53:54.875Z,0.00
2022-12-09T05:54:54.811Z,0.00
2022-12-09T05:55:54.913Z,0.00
2022-12-09T05:56:54.231Z,0.00
2022-12-09T05:57:55.016Z,0.00
2022-12-09T05:58:54.875Z,0.00
2022-12-09T05:59:55.287Z,0.00
2022-12-09T06:00:55.301Z,0.00
2022-12-09T06:01:54.439Z,0.00
2022-12-09T06:02:54.509Z,0.00
2022-12-09T06:03:54.720Z,0.00
2022-12-09T06:04:54.634Z,0.00
2022-12-09T06:05:55.454Z,0.00
2022-12-09T06:06:55.376Z,0.00
2022-12-09T06:07:54.823Z,0.00
2022-12-09T06:08:54.910Z,0.00
2022-12-09T06:09:54.805Z,0.00
2022-12-09T06:10:55.329Z,0.00
2022-12-09T06:11:54.761Z,0.00
2022-12-09T06:12:54.842Z,0.00
2022-12-09T06:13:56.079Z,0.00
2022-12-09T06:14:54.966Z,0.00
2022-12-09T06:15:55.347Z,0.00
2022-12-09T06:16:55.184Z,0.00
2022-12-09T06:17:55.127Z,0.00
2022-12-09T06:18:56.131Z,0.00
2022-12-09T06:19:55.940Z,0.00
2022-12-09T06:20:55.149Z,0.00
2022-12-09T06:21:55.992Z,0.00
2022-12-09T06:22:55.274Z,0.00
2022-12-09T06:23:55.817Z,0.00
2022-12-09T06:24:57.226Z,0.00
2022-12-09T06:25:56.644Z,0.00
2022-12-09T06:26:55.654Z,0.00
2022-12-09T06:27:55.666Z,0.00
2022-12-09T06:28:55.496Z,0.00
2022-12-09T06:29:55.883Z,0.00
2022-12-09T06:30:56.458Z,0.00
2022-12-09T06:31:56.268Z,0.00
2022-12-09T06:32:55.659Z,0.00
2022-12-09T06:33:57.611Z,0.00
2022-12-09T06:34:56.063Z,0.00
2022-12-09T06:35:56.229Z,0.00
2022-12-09T06:36:55.965Z,0.00
2022-12-09T06:37:55.867Z,0.00
2022-12-09T06:38:56.939Z,0.00
2022-12-09T06:39:57.142Z,0.00
2022-12-09T06:40:57.094Z,0.00
2022-12-09T06:41:57.134Z,0.00
2022-12-09T06:42:58.147Z,0.00
2022-12-09T06:43:56.052Z,0.00
2022-12-09T06:44:56.946Z,0.00
2022-12-09T06:45:56.473Z,0.00
2022-12-09T06:46:56.983Z,0.00
2022-12-09T06:47:57.264Z,0.00
2022-12-09T06:48:57.657Z,0.00
2022-12-09T06:50:00.940Z,0.00
2022-12-09T06:50:56.764Z,0.00
2022-12-09T06:51:57.585Z,0.00
2022-12-09T06:52:56.801Z,0.00
2022-12-09T06:53:57.425Z,0.00
2022-12-09T06:54:56.871Z,0.00
2022-12-09T06:55:56.614Z,0.00
2022-12-09T06:56:56.981Z,0.00
2022-12-09T06:57:56.899Z,0.00
2022-12-09T06:58:57.501Z,0.00
2022-12-09T06:59:57.486Z,0.00
2022-12-09T07:00:57.339Z,0.00
2022-12-09T07:01:56.967Z,0.00
2022-12-09T07:02:57.846Z,5.63
2022-12-09T07:03:58.436Z,5.63
2022-12-09T07:04:58.293Z,5.63
2022-12-09T07:05:57.978Z,5.63
2022-12-09T07:06:57.308Z,5.63
2022-12-09T07:07:57.472Z,5.63
2022-12-09T07:08:58.205Z,5.63
2022-12-09T07:09:57.291Z,5.63
2022-12-09T07:10:57.381Z,5.63
2022-12-09T07:11:57.593Z,5.63
2022-12-09T07:12:57.460Z,5.63
2022-12-09T07:13:58.383Z,5.63
2022-12-09T07:14:58.309Z,5.63
2022-12-09T07:15:58.356Z,11.25
2022-12-09T07:16:58.348Z,11.25
2022-12-09T07:17:57.841Z,11.25
2022-12-09T07:18:58.520Z,11.25
2022-12-09T07:20:03.342Z,11.25
2022-12-09T07:20:57.611Z,11.25
2022-12-09T07:21:57.925Z,11.25
2022-12-09T07:22:58.045Z,11.25
2022-12-09T07:23:57.768Z,11.25
2022-12-09T07:24:57.969Z,11.25
2022-12-09T07:25:58.604Z,11.25
2022-12-09T07:27:01.870Z,11.25
2022-12-09T07:27:58.233Z,11.25
2022-12-09T07:28:58.917Z,11.25
2022-12-09T07:29:58.359Z,11.25
2022-12-09T07:30:58.123Z,11.25
2022-12-09T07:31:58.103Z,11.25
2022-12-09T07:32:59.248Z,11.25
2022-12-09T07:33:58.949Z,16.88
2022-12-09T07:34:58.821Z,16.88
2022-12-09T07:35:58.248Z,16.88
2022-12-09T07:36:58.724Z,16.88
2022-12-09T07:37:58.610Z,22.50
2022-12-09T07:38:59.423Z,22.50
2022-12-09T07:39:58.356Z,22.50
2022-12-09T07:40:59.695Z,22.50
2022-12-09T07:41:59.556Z,22.50
2022-12-09T07:42:59.901Z,28.13
2022-12-09T07:43:59.311Z,28.13
2022-12-09T07:44:59.570Z,28.13
2022-12-09T07:45:59.527Z,28.13
2022-12-09T07:46:59.381Z,28.13
2022-12-09T07:47:59.025Z,28.13
2022-12-09T07:48:59.544Z,28.13
2022-12-09T07:50:04.693Z,28.13
2022-12-09T07:50:58.858Z,28.13
2022-12-09T07:51:58.892Z,28.13
2022-12-09T07:52:59.052Z,28.13
2022-12-09T07:54:00.180Z,28.13
2022-12-09T07:55:00.031Z,28.13
2022-12-09T07:55:59.767Z,28.13
2022-12-09T07:56:59.787Z,28.13
2022-12-09T07:57:59.148Z,28.13
2022-12-09T07:59:00.160Z,28.13
2022-12-09T07:59:59.958Z,28.13
2022-12-09T08:00:59.739Z,28.13
2022-12-09T08:02:05.545Z,28.13
2022-12-09T08:02:59.349Z,33.75
2022-12-09T08:03:59.371Z,33.75
2022-12-09T08:05:00.387Z,33.75
2022-12-09T08:06:00.337Z,39.38
2022-12-09T08:06:59.746Z,39.38
2022-12-09T08:07:59.814Z,39.38
2022-12-09T08:08:59.786Z,39.38
2022-12-09T08:09:59.626Z,45.00
2022-12-09T08:11:00.720Z,45.00
2022-12-09T08:11:59.810Z,50.63
2022-12-09T08:13:00.012Z,50.63
2022-12-09T08:14:04.349Z,50.63
2022-12-09T08:15:00.324Z,56.25
2022-12-09T08:16:00.730Z,56.25
2022-12-09T08:17:00.238Z,50.63
2022-12-09T08:18:00.233Z,56.25
2022-12-09T08:19:00.145Z,56.25
2022-12-09T08:20:00.225Z,61.88
2022-12-09T08:21:00.936Z,61.88
2022-12-09T08:22:00.422Z,61.88
2022-12-09T08:23:00.167Z,67.50
2022-12-09T08:24:00.831Z,67.50
2022-12-09T08:25:00.377Z,67.50
2022-12-09T08:26:01.142Z,67.50
2022-12-09T08:27:00.462Z,67.50
2022-12-09T08:28:01.361Z,61.88
2022-12-09T08:29:01.756Z,61.88
2022-12-09T08:30:01.677Z,61.88
2022-12-09T08:31:01.378Z,67.50
2022-12-09T08:32:00.735Z,56.25
2022-12-09T08:33:00.828Z,56.25
2022-12-09T08:34:01.542Z,56.25
2022-12-09T08:35:00.833Z,56.25
2022-12-09T08:36:00.646Z,56.25
2022-12-09T08:37:02.494Z,56.25
2022-12-09T08:38:00.987Z,56.25
2022-12-09T08:39:01.354Z,61.88
2022-12-09T08:40:00.911Z,61.88
2022-12-09T08:41:01.855Z,61.88
2022-12-09T08:42:00.939Z,67.50
2022-12-09T08:43:01.823Z,67.50
2022-12-09T08:44:01.023Z,61.88
2022-12-09T08:45:02.932Z,67.50
2022-12-09T08:46:01.072Z,61.88
2022-12-09T08:47:01.145Z,56.25
2022-12-09T08:48:02.095Z,56.25
2022-12-09T08:49:01.921Z,56.25
2022-12-09T08:50:02.073Z,56.25
2022-12-09T08:51:01.899Z,56.25
2022-12-09T08:52:01.242Z,56.25
2022-12-09T08:53:02.549Z,56.25
2022-12-09T08:54:02.490Z,56.25
2022-12-09T08:55:01.454Z,56.25
2022-12-09T08:56:02.612Z,56.25
2022-12-09T08:57:01.716Z,61.88
2022-12-09T08:58:01.539Z,61.88
2022-12-09T08:59:02.350Z,61.88
2022-12-09T09:00:02.268Z,61.88
2022-12-09T09:01:02.440Z,61.88
2022-12-09T09:02:02.044Z,61.88
2022-12-09T09:03:02.847Z,61.88
2022-12-09T09:04:02.080Z,61.88
2022-12-09T09:05:02.950Z,61.88
2022-12-09T09:06:09.321Z,61.88
2022-12-09T09:07:03.038Z,61.88
2022-12-09T09:08:02.942Z,61.88
2022-12-09T09:09:02.264Z,61.88
2022-12-09T09:10:02.425Z,61.88
2022-12-09T09:11:03.002Z,61.88
2022-12-09T09:12:02.098Z,61.88
2022-12-09T09:13:02.904Z,61.88
2022-12-09T09:14:02.242Z,61.88
2022-12-09T09:15:04.461Z,61.88
2022-12-09T09:16:02.661Z,67.50
2022-12-09T09:17:03.529Z,67.50
2022-12-09T09:18:03.782Z,67.50
2022-12-09T09:19:02.741Z,67.50
2022-12-09T09:20:02.534Z,67.50
2022-12-09T09:21:02.652Z,67.50
2022-12-09T09:22:02.786Z,67.50
2022-12-09T09:23:03.585Z,67.50
2022-12-09T09:24:03.081Z,67.50
2022-12-09T09:25:03.308Z,67.50
2022-12-09T09:26:03.418Z,67.50
2022-12-09T09:27:02.803Z,67.50
2022-12-09T09:28:03.641Z,67.50
2022-12-09T09:29:04.146Z,67.50
2022-12-09T09:30:03.963Z,67.50
2022-12-09T09:31:04.241Z,67.50
2022-12-09T09:32:03.181Z,67.50
2022-12-09T09:33:03.372Z,67.50
2022-12-09T09:34:03.101Z,61.88
2022-12-09T09:35:04.230Z,61.88
2022-12-09T09:36:09.643Z,61.88
2022-12-09T09:37:03.609Z,61.88
2022-12-09T09:38:03.176Z,61.88
2022-12-09T09:39:03.851Z,56.25
2022-12-09T09:40:03.276Z,56.25
2022-12-09T09:41:03.710Z,56.25
2022-12-09T09:42:08.109Z,56.25
2022-12-09T09:43:04.323Z,56.25
2022-12-09T09:44:04.604Z,56.25
2022-12-09T09:45:04.687Z,56.25
2022-12-09T09:46:03.730Z,56.25
2022-12-09T09:47:03.742Z,56.25
2022-12-09T09:48:03.826Z,56.25
2022-12-09T09:49:04.801Z,56.25
2022-12-09T09:50:04.702Z,61.88
2022-12-09T09:51:03.832Z,61.88
2022-12-09T09:52:04.559Z,67.50
2022-12-09T09:53:04.941Z,67.50
2022-12-09T09:54:08.401Z,67.50
2022-12-09T09:55:04.793Z,67.50
2022-12-09T09:56:04.210Z,67.50
2022-12-09T09:57:05.105Z,73.13
2022-12-09T09:58:04.051Z,78.75
2022-12-09T09:59:04.414Z,84.38
2022-12-09T10:00:09.277Z,84.38
2022-12-09T10:01:04.272Z,90.00
2022-12-09T10:02:05.056Z,95.63
2022-12-09T10:03:04.984Z,95.63
2022-12-09T10:04:04.557Z,95.63
2022-12-09T10:05:04.572Z,101.25
2022-12-09T10:06:05.874Z,101.25
2022-12-09T10:07:07.936Z,101.25
2022-12-09T10:08:05.474Z,101.25
2022-12-09T10:09:04.776Z,101.25
2022-12-09T10:10:04.778Z,101.25
2022-12-09T10:11:04.892Z,101.25
2022-12-09T10:12:05.532Z,101.25
2022-12-09T10:13:09.381Z,101.25
2022-12-09T10:14:05.027Z,101.25
2022-12-09T10:15:05.570Z,106.88
2022-12-09T10:16:04.886Z,106.88
2022-12-09T10:17:05.961Z,106.88
2022-12-09T10:18:06.213Z,106.88
2022-12-09T10:19:09.010Z,106.88
2022-12-09T10:20:05.059Z,106.88
2022-12-09T10:21:05.035Z,106.88
2022-12-09T10:22:05.835Z,106.88
2022-12-09T10:23:06.022Z,106.88
2022-12-09T10:24:05.540Z,106.88
2022-12-09T10:25:05.552Z,106.88
2022-12-09T10:26:05.314Z,106.88
2022-12-09T10:27:06.182Z,106.88
2022-12-09T10:28:05.713Z,106.88
2022-12-09T10:29:05.727Z,106.88
2022-12-09T10:30:05.737Z,101.25
2022-12-09T10:31:06.420Z,101.25
2022-12-09T10:32:05.857Z,101.25
2022-12-09T10:33:05.663Z,101.25
2022-12-09T10:34:05.702Z,95.63
2022-12-09T10:35:06.098Z,90.00
2022-12-09T10:36:06.383Z,84.38
2022-12-09T10:37:05.825Z,78.75
2022-12-09T10:38:05.730Z,73.13
2022-12-09T10:39:06.051Z,73.13
2022-12-09T10:40:07.749Z,67.50
2022-12-09T10:41:07.278Z,73.13
2022-12-09T10:42:07.009Z,73.13
2022-12-09T10:43:06.013Z,78.75
2022-12-09T10:44:06.040Z,84.38
2022-12-09T10:45:06.851Z,90.00
2022-12-09T10:46:17.746Z,95.63
2022-12-09T10:47:06.191Z,95.63
2022-12-09T10:48:07.188Z,95.63
2022-12-09T10:49:06.635Z,95.63
2022-12-09T10:50:06.621Z,95.63
2022-12-09T10:51:06.597Z,95.63
2022-12-09T10:52:06.443Z,95.63
2022-12-09T10:53:06.775Z,95.63
2022-12-09T10:54:06.445Z,95.63
2022-12-09T10:55:07.404Z,95.63
2022-12-09T10:56:07.285Z,95.63
2022-12-09T10:57:06.599Z,95.63
2022-12-09T10:58:06.553Z,101.25
2022-12-09T10:59:07.401Z,106.88
2022-12-09T11:00:08.301Z,112.50
2022-12-09T11:01:06.995Z,112.50
2022-12-09T11:02:07.023Z,112.50
2022-12-09T11:03:07.007Z,106.88
2022-12-09T11:04:07.296Z,106.88
2022-12-09T11:05:07.212Z,106.88
2022-12-09T11:06:08.312Z,112.50
2022-12-09T11:07:07.013Z,118.13
2022-12-09T11:08:07.020Z,123.75
2022-12-09T11:09:07.337Z,129.38
2022-12-09T11:10:08.763Z,129.38
2022-12-09T11:11:07.219Z,129.38
2022-12-09T11:12:07.606Z,123.75
2022-12-09T11:13:07.209Z,123.75
2022-12-09T11:14:07.553Z,123.75
2022-12-09T11:15:07.759Z,123.75
2022-12-09T11:16:07.421Z,129.38
2022-12-09T11:17:07.415Z,129.38
2022-12-09T11:18:07.871Z,129.38
2022-12-09T11:19:08.425Z,135.00
2022-12-09T11:20:09.106Z,135.00
2022-12-09T11:21:07.945Z,140.63
2022-12-09T11:22:07.790Z,146.25
2022-12-09T11:23:08.350Z,151.88
2022-12-09T11:24:07.878Z,151.88
2022-12-09T11:25:08.580Z,151.88
2022-12-09T11:26:07.876Z,140.63
2022-12-09T11:27:07.777Z,123.75
2022-12-09T11:28:08.016Z,118.13
2022-12-09T11:29:08.201Z,123.75
2022-12-09T11:30:12.835Z,118.13
2022-12-09T11:31:34.080Z,112.50
2022-12-09T11:32:08.054Z,106.88
2022-12-09T11:33:08.106Z,106.88
2022-12-09T11:34:08.262Z,106.88
2022-12-09T11:35:09.373Z,118.13
2022-12-09T11:37:08.742Z,135.00
2022-12-09T11:38:08.247Z,140.63
2022-12-09T11:39:08.252Z,146.25
2022-12-09T11:40:09.384Z,151.88
2022-12-09T11:41:08.342Z,151.88
2022-12-09T11:42:16.181Z,151.88
2022-12-09T11:43:08.461Z,151.88
2022-12-09T11:44:09.252Z,151.88
2022-12-09T11:45:09.245Z,135.00
2022-12-09T11:46:08.581Z,123.75
2022-12-09T11:47:08.634Z,112.50
2022-12-09T11:48:32.575Z,112.50
2022-12-09T11:49:08.688Z,106.88
2022-12-09T11:50:08.969Z,101.25
2022-12-09T11:51:08.794Z,101.25
2022-12-09T11:52:08.836Z,101.25
2022-12-09T11:53:08.890Z,101.25
2022-12-09T11:54:09.753Z,101.25
2022-12-09T11:55:08.932Z,101.25
2022-12-09T11:56:09.020Z,101.25
2022-12-09T11:57:09.028Z,101.25
2022-12-09T11:58:09.064Z,101.25
2022-12-09T11:59:09.105Z,101.25
2022-12-09T12:00:09.278Z,101.25
2022-12-09T12:01:09.234Z,95.63
2022-12-09T12:02:09.268Z,95.63
2022-12-09T12:03:10.331Z,95.63
2022-12-09T12:04:09.328Z,90.00
2022-12-09T12:05:10.257Z,84.38
2022-12-09T12:06:09.441Z,78.75
2022-12-09T12:07:09.465Z,73.13
2022-12-09T12:08:10.357Z,67.50
2022-12-09T12:09:09.564Z,67.50
2022-12-09T12:10:09.799Z,61.88
2022-12-09T12:11:15.062Z,61.88
2022-12-09T12:12:09.658Z,61.88
2022-12-09T12:13:10.444Z,61.88
2022-12-09T12:14:09.772Z,61.88
2022-12-09T12:15:11.441Z,61.88
2022-12-09T12:16:09.837Z,61.88
2022-12-09T12:17:10.560Z,61.88
2022-12-09T12:18:10.480Z,61.88
2022-12-09T12:19:10.749Z,61.88
2022-12-09T12:20:10.759Z,67.50
2022-12-09T12:21:10.038Z,67.50
2022-12-09T12:22:10.767Z,61.88
2022-12-09T12:23:10.173Z,61.88
2022-12-09T12:24:10.750Z,61.88
2022-12-09T12:25:17.154Z,67.50
2022-12-09T12:26:10.768Z,67.50
2022-12-09T12:27:10.294Z,73.13
2022-12-09T12:28:10.383Z,78.75
2022-12-09T12:29:11.263Z,84.38
2022-12-09T12:30:11.255Z,90.00
2022-12-09T12:31:11.251Z,95.63
2022-12-09T12:32:11.315Z,101.25
2022-12-09T12:34:26.440Z,106.88
2022-12-09T12:35:10.671Z,101.25
2022-12-09T12:36:11.257Z,112.50
2022-12-09T12:37:10.724Z,118.13
2022-12-09T12:38:10.760Z,123.75
2022-12-09T12:39:11.762Z,129.38
2022-12-09T12:40:11.033Z,129.38
2022-12-09T12:41:10.888Z,123.75
2022-12-09T12:42:11.752Z,118.13
2022-12-09T12:43:11.749Z,112.50
2022-12-09T12:44:11.774Z,118.13
2022-12-09T12:45:11.078Z,123.75
2022-12-09T12:46:11.117Z,135.00
2022-12-09T12:47:11.142Z,135.00
2022-12-09T12:48:11.796Z,135.00
2022-12-09T12:49:11.760Z,129.38
2022-12-09T12:50:11.341Z,123.75
2022-12-09T12:51:11.337Z,118.13
2022-12-09T12:52:26.303Z,118.13
2022-12-09T12:53:11.386Z,118.13
2022-12-09T12:54:11.455Z,118.13
2022-12-09T12:55:12.261Z,123.75
2022-12-09T12:56:11.528Z,118.13
2022-12-09T12:57:11.570Z,118.13
2022-12-09T12:58:11.633Z,123.75
2022-12-09T12:59:11.644Z,123.75
2022-12-09T13:00:12.264Z,118.13
2022-12-09T13:01:11.756Z,112.50
2022-12-09T13:02:11.855Z,106.88
2022-12-09T13:03:11.844Z,101.25
2022-12-09T13:04:11.896Z,95.63
2022-12-09T13:05:12.763Z,90.00
2022-12-09T13:06:11.949Z,90.00
2022-12-09T13:07:11.982Z,84.38
2022-12-09T13:08:12.076Z,84.38
2022-12-09T13:09:12.107Z,78.75
2022-12-09T13:10:12.109Z,78.75
2022-12-09T13:11:12.156Z,78.75
2022-12-09T13:12:12.188Z,73.13
2022-12-09T13:13:12.233Z,73.13
2022-12-09T13:14:12.303Z,67.50
2022-12-09T13:15:12.356Z,67.50
2022-12-09T13:16:13.314Z,67.50
2022-12-09T13:17:12.409Z,67.50
2022-12-09T13:18:13.253Z,67.50
2022-12-09T13:19:13.263Z,67.50
2022-12-09T13:20:12.578Z,61.88
2022-12-09T13:21:13.268Z,61.88
2022-12-09T13:22:12.613Z,56.25
2022-12-09T13:23:12.692Z,56.25
2022-12-09T13:24:13.261Z,56.25
2022-12-09T13:25:13.254Z,56.25
2022-12-09T13:26:12.789Z,56.25
2022-12-09T13:27:13.759Z,56.25
2022-12-09T13:28:12.907Z,56.25
2022-12-09T13:29:13.761Z,61.88
2022-12-09T13:30:12.962Z,61.88
2022-12-09T13:31:13.037Z,61.88
2022-12-09T13:32:13.761Z,61.88
2022-12-09T13:33:13.116Z,61.88
2022-12-09T13:34:13.118Z,61.88
2022-12-09T13:35:13.169Z,61.88
2022-12-09T13:36:13.203Z,61.88
2022-12-09T13:37:13.277Z,61.88
2022-12-09T13:38:14.267Z,61.88
2022-12-09T13:39:13.374Z,61.88
2022-12-09T13:40:14.265Z,67.50
2022-12-09T13:41:13.420Z,61.88
2022-12-09T13:42:13.455Z,61.88
2022-12-09T13:43:13.507Z,61.88
2022-12-09T13:44:13.574Z,61.88
2022-12-09T13:45:13.599Z,61.88
2022-12-09T13:46:13.673Z,61.88
2022-12-09T13:47:14.261Z,56.25
2022-12-09T13:48:16.929Z,56.25
2022-12-09T13:49:13.780Z,56.25
2022-12-09T13:50:13.811Z,50.63
2022-12-09T13:51:14.758Z,50.63
2022-12-09T13:52:13.875Z,50.63
2022-12-09T13:53:13.924Z,56.25
2022-12-09T13:54:14.003Z,56.25
2022-12-09T13:55:14.757Z,56.25
2022-12-09T13:56:14.755Z,56.25
2022-12-09T13:57:14.768Z,61.88
2022-12-09T13:58:14.130Z,61.88
2022-12-09T13:59:14.202Z,61.88
2022-12-09T14:00:14.763Z,61.88
2022-12-09T14:01:14.763Z,67.50
2022-12-09T14:02:14.363Z,73.13
2022-12-09T14:03:15.306Z,73.13
2022-12-09T14:04:14.409Z,73.13
2022-12-09T14:05:14.440Z,67.50
2022-12-09T14:06:15.261Z,67.50
2022-12-09T14:07:15.258Z,61.88
2022-12-09T14:08:14.592Z,56.25
2022-12-09T14:09:15.261Z,56.25
2022-12-09T14:10:14.665Z,56.25
2022-12-09T14:11:14.664Z,56.25
2022-12-09T14:12:14.706Z,56.25
2022-12-09T14:13:15.266Z,56.25
2022-12-09T14:14:14.793Z,56.25
2022-12-09T14:15:14.859Z,61.88
2022-12-09T14:16:14.933Z,61.88
2022-12-09T14:17:14.917Z,56.25
2022-12-09T14:18:15.756Z,56.25
2022-12-09T14:19:15.562Z,56.25
2022-12-09T14:20:15.064Z,56.25
2022-12-09T14:21:15.077Z,61.88
2022-12-09T14:22:15.116Z,61.88
2022-12-09T14:23:15.758Z,61.88
2022-12-09T14:24:15.759Z,61.88
2022-12-09T14:25:15.286Z,56.25
2022-12-09T14:26:15.294Z,56.25
2022-12-09T14:27:16.266Z,56.25
2022-12-09T14:28:15.412Z,50.63
2022-12-09T14:29:16.262Z,50.63
2022-12-09T14:30:16.271Z,45.00
2022-12-09T14:31:15.520Z,45.00
2022-12-09T14:32:16.269Z,45.00
2022-12-09T14:33:16.260Z,39.38
2022-12-09T14:34:15.656Z,39.38
2022-12-09T14:35:15.704Z,39.38
2022-12-09T14:36:15.711Z,39.38
2022-12-09T14:37:15.738Z,39.38
2022-12-09T14:38:15.788Z,39.38
2022-12-09T14:39:24.152Z,39.38
2022-12-09T14:40:15.967Z,39.38
2022-12-09T14:41:15.942Z,33.75
2022-12-09T14:42:15.955Z,33.75
2022-12-09T14:43:16.000Z,28.13
2022-12-09T14:44:16.060Z,28.13
2022-12-09T14:45:16.771Z,28.13
2022-12-09T14:46:16.220Z,28.13
2022-12-09T14:47:16.156Z,28.13
2022-12-09T14:48:16.206Z,28.13
2022-12-09T14:49:16.769Z,22.50
2022-12-09T14:50:17.271Z,22.50
2022-12-09T14:51:16.355Z,22.50
2022-12-09T14:52:17.265Z,22.50
2022-12-09T14:53:17.264Z,16.88
2022-12-09T14:54:17.260Z,16.88
2022-12-09T14:55:17.269Z,16.88
2022-12-09T14:56:16.549Z,16.88
2022-12-09T14:57:17.526Z,16.88
2022-12-09T14:58:16.614Z,16.88
2022-12-09T14:59:17.269Z,16.88
2022-12-09T15:00:17.280Z,11.25
2022-12-09T15:01:17.271Z,11.25
2022-12-09T15:02:16.867Z,11.25
2022-12-09T15:03:39.588Z,11.25
2022-12-09T15:04:16.927Z,11.25
2022-12-09T15:05:17.814Z,11.25
2022-12-09T15:06:17.779Z,11.25
2022-12-09T15:07:16.994Z,11.25
2022-12-09T15:08:17.818Z,11.25
2022-12-09T15:09:17.773Z,11.25
2022-12-09T15:10:19.768Z,11.25
2022-12-09T15:11:17.781Z,11.25
2022-12-09T15:12:17.214Z,5.63
2022-12-09T15:13:17.771Z,5.63
2022-12-09T15:14:17.775Z,5.63
2022-12-09T15:15:18.274Z,5.63
2022-12-09T15:16:18.332Z,5.63
2022-12-09T15:17:17.420Z,5.63
2022-12-09T15:18:18.267Z,5.63
2022-12-09T15:19:36.972Z,5.63
2022-12-09T15:20:17.830Z,5.63
2022-12-09T15:21:17.545Z,5.63
2022-12-09T15:22:17.611Z,5.63
2022-12-09T15:23:18.274Z,5.63
2022-12-09T15:24:17.675Z,0.00
2022-12-09T15:25:17.741Z,0.00
2022-12-09T15:26:18.285Z,0.00
2022-12-09T15:27:17.797Z,0.00
2022-12-09T15:28:24.513Z,0.00
2022-12-09T15:29:17.903Z,0.00
2022-12-09T15:30:18.766Z,0.00
2022-12-09T15:31:18.882Z,0.00
2022-12-09T15:32:18.781Z,0.00
2022-12-09T15:33:18.770Z,0.00
2022-12-09T15:34:23.202Z,0.00
2022-12-09T15:35:18.128Z,0.00
2022-12-09T15:36:18.764Z,0.00
2022-12-09T15:37:18.780Z,0.00
2022-12-09T15:38:18.783Z,0.00
2022-12-09T15:39:18.309Z,0.00
2022-12-09T15:40:18.353Z,0.00
2022-12-09T15:41:19.277Z,0.00
2022-12-09T15:42:19.272Z,0.00
2022-12-09T15:43:18.460Z,0.00
2022-12-09T15:44:19.281Z,0.00
2022-12-09T15:45:18.553Z,0.00
2022-12-09T15:46:18.610Z,0.00
2022-12-09T15:47:18.656Z,0.00
2022-12-09T15:48:18.646Z,0.00
2022-12-09T15:49:18.702Z,0.00
2022-12-09T15:50:18.743Z,0.00
2022-12-09T15:51:18.797Z,0.00
2022-12-09T15:52:19.780Z,0.00
2022-12-09T15:53:18.850Z,0.00
2022-12-09T15:54:18.911Z,0.00
2022-12-09T15:55:19.773Z,0.00
2022-12-09T15:56:18.987Z,0.00
2022-12-09T15:57:19.039Z,0.00
2022-12-09T15:58:19.778Z,0.00
2022-12-09T15:59:19.101Z,0.00
2022-12-09T16:00:19.767Z,0.00
2022-12-09T16:01:19.170Z,0.00
2022-12-09T16:02:19.385Z,0.00
2022-12-09T16:03:21.791Z,0.00
2022-12-09T16:04:19.304Z,0.00
2022-12-09T16:05:19.356Z,0.00
2022-12-09T16:06:20.275Z,0.00
2022-12-09T16:07:19.415Z,0.00
2022-12-09T16:08:19.486Z,0.00
2022-12-09T16:09:19.493Z,0.00
2022-12-09T16:10:19.602Z,0.00
2022-12-09T16:11:20.907Z,0.00
2022-12-09T16:12:20.275Z,0.00
2022-12-09T16:13:19.655Z,0.00
2022-12-09T16:14:19.715Z,0.00
2022-12-09T16:15:19.766Z,0.00
2022-12-09T16:16:19.854Z,0.00
2022-12-09T16:17:19.814Z,0.00
2022-12-09T16:18:19.884Z,0.00
2022-12-09T16:19:19.904Z,0.00
2022-12-09T16:20:19.939Z,0.00
2022-12-09T16:21:20.010Z,0.00
2022-12-09T16:22:20.023Z,0.00
2022-12-09T16:23:20.061Z,0.00
2022-12-09T16:24:20.790Z,0.00
2022-12-09T16:25:20.171Z,0.00
2022-12-09T16:26:20.204Z,0.00
2022-12-09T16:27:20.222Z,0.00
2022-12-09T16:28:20.263Z,0.00
2022-12-09T16:29:20.341Z,0.00
2022-12-09T16:30:21.270Z,0.00
2022-12-09T16:31:20.458Z,0.00
2022-12-09T16:32:20.426Z,0.00
2022-12-09T16:33:20.473Z,0.00
2022-12-09T16:34:20.506Z,0.00
2022-12-09T16:35:20.626Z,0.00
2022-12-09T16:36:20.588Z,0.00
2022-12-09T16:37:20.626Z,0.00
2022-12-09T16:38:20.671Z,0.00
2022-12-09T16:39:20.707Z,0.00
2022-12-09T16:40:20.791Z,0.00
2022-12-09T16:41:20.792Z,0.00
2022-12-09T16:42:20.869Z,0.00
2022-12-09T16:43:20.880Z,0.00
2022-12-09T16:44:20.915Z,0.00
2022-12-09T16:45:21.769Z,0.00
2022-12-09T16:46:21.081Z,0.00
2022-12-09T16:47:21.040Z,0.00
2022-12-09T16:48:21.085Z,0.00
2022-12-09T16:49:21.129Z,0.00
2022-12-09T16:50:21.181Z,0.00
2022-12-09T16:51:21.210Z,0.00
2022-12-09T16:52:21.242Z,0.00
2022-12-09T16:53:22.273Z,0.00
2022-12-09T16:54:22.279Z,0.00
2022-12-09T16:55:21.396Z,0.00
2022-12-09T16:56:21.402Z,0.00
2022-12-09T16:57:21.455Z,0.00
2022-12-09T16:58:21.478Z,0.00
2022-12-09T16:59:21.551Z,0.00
2022-12-09T17:00:21.576Z,0.00
2022-12-09T17:01:21.639Z,0.00
2022-12-09T17:02:21.702Z,0.00
2022-12-09T17:03:21.688Z,0.00
2022-12-09T17:04:21.750Z,0.00
2022-12-09T17:05:21.760Z,0.00
2022-12-09T17:06:21.813Z,0.00
2022-12-09T17:07:21.869Z,0.00
2022-12-09T17:08:21.929Z,0.00
2022-12-09T17:09:21.926Z,0.00
2022-12-09T17:10:21.969Z,0.00
2022-12-09T17:11:22.776Z,0.00
2022-12-09T17:12:22.136Z,0.00
2022-12-09T17:13:22.088Z,0.00
2022-12-09T17:14:22.134Z,0.00
2022-12-09T17:15:22.211Z,0.00
2022-12-09T17:16:22.467Z,0.00
2022-12-09T17:17:22.271Z,0.00
2022-12-09T17:18:22.289Z,0.00
2022-12-09T17:19:22.325Z,0.00
2022-12-09T17:20:22.370Z,0.00
2022-12-09T17:21:22.410Z,0.00
2022-12-09T17:22:22.480Z,0.00
2022-12-09T17:23:22.490Z,0.00
2022-12-09T17:24:22.557Z,0.00
2022-12-09T17:25:22.572Z,0.00
2022-12-09T17:26:22.614Z,0.00
2022-12-09T17:27:22.678Z,0.00
2022-12-09T17:28:28.489Z,0.00
2022-12-09T17:29:22.738Z,0.00
2022-12-09T17:30:22.779Z,0.00
2022-12-09T17:31:22.870Z,0.00
2022-12-09T17:32:22.880Z,0.00
2022-12-09T17:33:22.890Z,0.00
2022-12-09T17:34:23.792Z,0.00
2022-12-09T17:35:23.007Z,0.00
2022-12-09T17:49:22.585Z,0.00
2022-12-09T17:50:23.498Z,0.00
2022-12-09T17:51:23.486Z,0.00
2022-12-09T17:52:22.642Z,0.00
2022-12-09T17:53:22.698Z,0.00
2022-12-09T17:54:22.744Z,0.00
2022-12-09T17:55:22.777Z,0.00
2022-12-09T17:56:25.178Z,0.00
2022-12-09T18:13:57.684Z,0.00
2022-12-09T18:14:57.767Z,0.00
2022-12-09T18:33:55.959Z,0.00
2022-12-09T18:48:10.991Z,0.00
2022-12-09T18:49:11.605Z,0.00
2022-12-09T18:50:11.619Z,0.00